Terminal Aerodrome Forecast
Issued by NWS Springfield, MO

Home | Current Version | Previous Version | Text Only | Print | Product List | Glossary On
Versions: 1 2 3 4 5 6 7 8 9 10 11 12 13 14 15 16 17 18 19 20
000
FTUS43 KSGF 252300
TAFSGF
TAF
KSGF 252320Z 2600/2624 05015KT 5SM -TSRA BR SCT040CB OVC080
      TEMPO 2600/2602 2SM +TSRA BR OVC015CB
     FM260400 36015G22KT 6SM -RADZ OVC009
     FM261000 36010KT P6SM OVC010
     FM261400 36012G17KT P6SM SCT015
     FM261800 35012G18KT P6SM SKC=

USA.gov is the U.S. government's official web portal to all federal, state and local government web resources and services.